x

East Lake Ontario - 20nm North Northeast Of Rochester, Ny (45012) Wave Buoy

3:50am - Thu 18th Sep 2014 All times are CDT. -5 hours from GMT.

  • Sig Wave height 1.6ft
  • Peak Period 4s
  • Average Period 4s
  • Wind
    9mph, 11mph gusts
  • Sea Temp 62°f
  • Air Temp 62°f
  • Sea Pressure 1014.8mb
  • East Lake Ontario  - 20nm North Northeast Of Rochester, Ny
  • East Lake Ontario  - 20nm North Northeast Of Rochester, Ny

More Historic Weather Station data

Upgrade to MSW Pro to gain access to the past 30 days of data for over 8000 Wavebouys and Weather Stations around the globe.

Join Pro

Comparision Forecast

View Surf forecast
   
Thu 09/18 3:50am 1.6ft 4s 4s 9 11 mph 1014.8mb 62f 62f
2:50am 1.6ft 4s 3s 9 11 mph 1014.5mb 62f 61f
1:50am 2ft 3s 3s 11 13 mph 1014.6mb 62f 61f
12:50am 1.6ft 3s 3s 13 16 mph 1014.6mb 62f 62f
Wed 09/17 11:50pm 1.6ft 3s 3s 13 16 mph 1014.4mb 62f 62f
10:50pm 1.3ft 4s 3s 11 13 mph 1014.4mb 62f 62f
9:50pm 1.3ft 4s 3s 9 11 mph 1014.6mb 62f 62f
8:50pm 1.3ft 4s 3s 9 11 mph 1014.5mb 62f 62f
7:50pm 1ft 4s 3s 9 11 mph 1014.5mb 62f 62f
6:50pm 1ft 3s 3s 9
mph
1014.4mb 63f 61f
5:50pm 1ft 4s 3s 7
mph
1014.5mb 63f 63f
4:50pm 1ft 3s 3s 7
mph
1014.7mb 63f 64f
3:50pm 1.3ft 3s 3s 7 9 mph 1014.7mb 63f 67f
2:50pm 1.3ft 4s 3s 7 9 mph 1014.7mb 63f 67f
1:50pm 1.3ft 4s 3s 9
mph
1014.9mb 63f 67f
12:50pm 1.6ft 4s 3s 9
mph
1015.5mb 62f 66f
11:50am 1.6ft 4s 3s 9 11 mph 1016mb 62f 65f
10:50am 2ft 3s 3s 11 13 mph 1016.5mb 62f 65f
9:50am 2ft 3s 3s 13 16 mph 1016.7mb 62f 64f
8:50am 2ft 3s 3s 13 16 mph 1017mb 62f 64f
7:50am 1.6ft 3s 3s 13 16 mph 1017mb 62f 62f
6:50am 1.3ft 3s 3s 13 16 mph 1017mb 62f 62f
5:50am 1ft 3s 3s 11 13 mph 1016.9mb 62f 58f
4:50am 1ft 4s 3s 9 11 mph 1016.9mb 62f 59f
3:50am 1ft 4s 3s 9
mph
1016.9mb 62f 58f
2:50am 1.3ft 3s 3s 9 11 mph 1017mb 62f 58f
1:50am 1.3ft 4s 3s 9 13 mph 1017.2mb 62f 59f
12:50am 1.6ft 4s 3s 11 13 mph 1017.2mb 62f 59f
Tue 09/16 11:50pm 1.6ft 4s 3s 11 13 mph 1017.1mb 62f 60f
10:50pm 2ft 4s 3s 11 13 mph 1017.1mb 62f 60f
9:50pm 2.5ft 4s 3s 13 16 mph 1017mb 62f 61f
8:50pm 2.5ft 4s 3s 13
mph
1017.2mb 62f 61f
7:50pm 2.5ft 4s 4s 13 16 mph 1017.1mb 62f 61f
6:50pm 3ft 5s 4s 16 18 mph 1016.8mb 62f 61f
5:50pm 3ft 5s 4s 18 20 mph 1016.6mb 62f 63f
4:50pm 3.5ft 4s 4s 18 20 mph 1016.6mb 62f 65f
3:50pm 3ft 4s 4s 18 22 mph 1016.5mb 62f 65f
2:50pm 2.5ft 4s 3s 16 20 mph 1016.6mb 62f 65f
1:50pm 2ft 4s 3s 16 18 mph 1016.9mb 62f 65f
12:50pm 1.6ft 4s 3s 13 16 mph 1017.2mb 62f 64f
11:50am 2ft 4s 3s 16 18 mph 1017.6mb 62f 64f
10:50am 2ft 3s 3s 16 18 mph 1017.8mb 62f 61f
9:50am 2ft 4s 3s 16 18 mph 1018mb 62f 63f
8:50am 1.6ft 3s 3s 13 18 mph 1017.9mb 62f 62f
7:50am 1.3ft 4s 3s 13 16 mph 1017.4mb 62f 60f
6:50am 1.3ft 4s 3s 13 16 mph 1017.2mb 62f 59f
5:50am 1.6ft 4s 3s 9 11 mph 1016.8mb 62f 58f
4:50am 2ft 4s 3s 9 11 mph 1016.3mb 62f 55f
3:50am 1.6ft 4s 3s 4 7 mph 1016.1mb 62f 58f
2:50am 2ft 5s 3s 4 7 mph 1016.1mb 62f 57f
1:50am 2ft 5s 3s 13
mph
1016.6mb 62f 56f
12:50am 2ft 5s 4s 9 11 mph 1017mb 62f 56f
Mon 09/15 11:50pm 1.6ft 4s 4s 9
mph
1017.2mb 62f 56f
10:50pm 1ft 3s 3s 9 11 mph 1017.3mb 62f 56f
9:50pm 0.3ft  -  3s 9
mph
1017.8mb 62f 58f
8:50pm 0.3ft  -  3s 4 7 mph 1018.1mb 62f 60f
7:50pm 0.7ft  -  3s 4
mph
1018.1mb 62f 60f
6:50pm 0.7ft  -  3s 4 7 mph 1018.3mb 62f 60f
5:50pm 0.7ft  -  3s 4
mph
1018.8mb 62f 61f
4:50pm 0.7ft  -  3s 2
mph
1019.2mb 62f 61f
3:50pm 0.7ft  -  3s  -  2 mph 1019.1mb 62f 61f
2:50pm 0.7ft  -  3s 4
mph
1019.8mb 63f 61f
1:50pm 0.7ft  -  3s 2
mph
1019.9mb 63f 64f
12:50pm 1ft 3s 3s 4
mph
1021mb 63f 66f
11:50am 1ft 3s 3s 4 7 mph 1021.4mb 62f 66f
10:50am 1.3ft 3s 3s 9
mph
1022.1mb 62f 65f
9:50am 1.6ft 3s 3s 9 11 mph 1022.5mb 62f 65f
8:50am 1.6ft 3s 3s 11 13 mph 1022.6mb 62f 64f
7:50am 1.6ft 3s 3s 11 13 mph 1022.8mb 62f 62f
6:50am 1.6ft 3s 3s 13 16 mph 1023.2mb 62f 62f
5:50am 1.6ft 4s 3s 11 13 mph 1022.9mb 62f 58f
4:50am 2.5ft 4s 4s 13 16 mph 1022.8mb 61f 58f
3:50am 2.5ft 4s 3s 16 18 mph 1022.8mb 62f 59f
2:50am 2.5ft 4s 4s 16 18 mph 1022.7mb 62f 59f
1:50am 2.5ft 4s 3s 18 20 mph 1022.8mb 62f 58f
12:50am 1.3ft 3s 3s 18 20 mph 1023mb 62f 57f
Sun 09/14 11:50pm 0.3ft  -  2s 11 13 mph 1023.4mb 63f 57f
10:50pm  -   -  3s 7 9 mph 1023.7mb 63f 58f
9:50pm  -   -  3s 7 9 mph 1024mb 63f 57f
8:50pm 0.3ft  -  3s 7 9 mph 1024.1mb 63f 57f
7:50pm 0.3ft  -  3s 4
mph
1024.6mb 63f 56f
6:50pm 0.3ft  -  3s  -  2 mph 1024.4mb 63f 55f
5:50pm 0.3ft  -  3s 2 4 mph 1024.7mb 64f 55f
4:50pm 0.3ft  -  3s  -  4 mph 1025mb 64f 57f
3:50pm 0.3ft  -  3s  -  2 mph 1025.5mb 64f 63f
2:50pm 0.3ft  -  3s  -  2 mph 1026mb 65f 62f
1:50pm 0.7ft  -  3s 2 4 mph 1026.7mb 64f 59f
12:50pm 0.7ft  -  3s  -  2 mph 1027.1mb 64f 58f
11:50am 0.7ft  -  3s 2 4 mph 1027.7mb 63f 57f
10:50am 0.7ft  -  3s 2 4 mph 1028mb 62f 55f